Aviation Digital Data Service (ADDS)

Output produced by METARs form (1012 UTC 26 May 2019)
found at http://www.aviationweather.gov/metar/data/
 
TAF DXXX 260500Z 2606/2712 26005KT 9999 SCT013 
     TEMPO 2609/2613 TS BKN012 FEW020CB 
     PROB30 4000 TSRA 
     BECMG 2609/2611 20010KT 
     BECMG 2622/2624 VRB03KT